Time;durP1;ratioP1;P1;durP2;ratioP2;P2;SDS_P1;SDS_P2;PMS_P1;PMS_P2;Temp;Humidity;BMP_temperature;BMP_pressure;BME280_temperature;BME280_humidity;BME280_pressure;Samples;Min_cycle;Max_cycle;Signal;HPM_P1;HPM_P2
2023/06/02 00:02:22;;;;;;;0.30;0.30;;;;;;;8.71;38.79;101138.47;5126361;28;20106;-61
2023/06/02 00:04:49;;;;;;;0.40;0.40;;;;;;;8.62;38.29;101128.91;5126549;28;20106;-61
2023/06/02 00:07:15;;;;;;;0.73;0.70;;;;;;;8.72;38.01;101147.13;5126387;28;20099;-61
2023/06/02 00:09:42;;;;;;;0.40;0.40;;;;;;;8.65;38.40;101157.41;5108102;28;20414;-62
2023/06/02 00:12:10;;;;;;;0.40;0.40;;;;;;;8.67;38.75;101168.63;5126260;28;20028;-62
2023/06/02 00:14:42;;;;;;;0.40;0.40;;;;;;;8.65;39.05;101174.66;5126071;28;20022;-61
2023/06/02 00:17:08;;;;;;;0.60;0.60;;;;;;;8.59;39.66;101170.28;5125802;28;20023;-62
2023/06/02 00:19:35;;;;;;;0.38;0.38;;;;;;;8.58;40.19;101172.84;5126026;28;20035;-61
2023/06/02 00:22:02;;;;;;;0.40;0.40;;;;;;;8.53;40.72;101175.34;5126047;28;20076;-61
2023/06/02 00:24:27;;;;;;;1.42;0.98;;;;;;;8.48;41.09;101169.22;5125853;28;20072;-61
2023/06/02 00:26:53;;;;;;;0.40;0.40;;;;;;;8.55;41.14;101174.53;5107758;28;20027;-61
2023/06/02 00:29:18;;;;;;;0.40;0.40;;;;;;;8.56;40.96;101170.25;5125962;28;20030;-62
2023/06/02 00:31:44;;;;;;;0.38;0.38;;;;;;;8.57;41.38;101169.38;5125779;28;20023;-60
2023/06/02 00:34:10;;;;;;;0.40;0.40;;;;;;;8.60;41.37;101173.72;5125867;28;20094;-61
2023/06/02 00:36:36;;;;;;;0.40;0.40;;;;;;;8.55;41.06;101176.25;5107316;28;20025;-61
2023/06/02 00:39:02;;;;;;;0.40;0.40;;;;;;;8.48;41.30;101161.47;5125789;28;20051;-60
2023/06/02 00:41:28;;;;;;;0.40;0.40;;;;;;;8.54;41.22;101177.06;5125775;28;20070;-61
2023/06/02 00:43:53;;;;;;;0.40;0.40;;;;;;;8.55;41.40;101179.72;5125228;28;20023;-61
2023/06/02 00:46:18;;;;;;;0.40;0.40;;;;;;;8.54;41.82;101174.47;5125499;28;20031;-61
2023/06/02 00:48:47;;;;;;;0.40;0.40;;;;;;;8.45;42.03;101153.66;5125556;28;20023;-61
2023/06/02 00:51:13;;;;;;;0.40;0.40;;;;;;;8.53;41.83;101180.53;5125386;28;20288;-62
2023/06/02 00:53:38;;;;;;;0.40;0.40;;;;;;;8.53;41.87;101181.38;5125291;28;20024;-60
2023/06/02 00:56:04;;;;;;;0.50;0.50;;;;;;;8.53;42.12;101191.72;5125578;28;20030;-62
2023/06/02 00:58:30;;;;;;;0.40;0.40;;;;;;;8.50;41.99;101191.69;5125280;28;20093;-61
2023/06/02 01:00:56;;;;;;;0.40;0.40;;;;;;;8.47;42.09;101195.94;5106913;28;20028;-60
2023/06/02 01:03:21;;;;;;;0.40;0.40;;;;;;;8.42;42.06;101185.53;5107078;28;20024;-60
2023/06/02 01:05:51;;;;;;;0.40;0.40;;;;;;;8.41;42.03;101186.38;5125366;28;20026;-61
2023/06/02 01:08:17;;;;;;;0.40;0.40;;;;;;;8.40;42.03;101195.88;5125322;28;20019;-61
2023/06/02 01:10:42;;;;;;;0.40;0.40;;;;;;;8.36;42.07;101198.38;5124955;28;20023;-61
2023/06/02 01:13:08;;;;;;;0.40;0.40;;;;;;;8.32;42.39;101192.31;5125057;28;20027;-60
2023/06/02 01:15:33;;;;;;;0.38;0.38;;;;;;;8.28;42.77;101187.94;5125325;28;20098;-61
2023/06/02 01:18:01;;;;;;;0.50;0.50;;;;;;;8.22;43.35;101201.66;5124939;28;20023;-61
2023/06/02 01:20:28;;;;;;;0.40;0.40;;;;;;;8.18;43.67;101189.53;5124855;28;20047;-62
2023/06/02 01:23:15;;;;;;;0.40;0.40;;;;;;;8.07;43.59;101176.44;5125195;28;20084;-60
2023/06/02 01:25:41;;;;;;;0.40;0.40;;;;;;;8.10;43.62;101202.34;5124988;28;20075;-61
2023/06/02 01:28:07;;;;;;;0.50;0.50;;;;;;;8.07;43.93;101199.72;5125076;28;20012;-61
2023/06/02 01:30:33;;;;;;;0.40;0.40;;;;;;;8.06;43.81;101200.56;5124714;28;20063;-62
2023/06/02 01:33:01;;;;;;;0.40;0.40;;;;;;;8.05;44.06;101199.69;5124756;28;20027;-61
2023/06/02 01:35:31;;;;;;;0.40;0.40;;;;;;;8.01;44.03;101207.38;5124967;28;20055;-62
2023/06/02 01:37:59;;;;;;;0.40;0.40;;;;;;;7.97;43.81;101215.97;5124888;28;20604;-61
2023/06/02 01:40:26;;;;;;;0.38;0.38;;;;;;;7.97;44.47;101214.22;5124872;28;20039;-61
2023/06/02 01:42:53;;;;;;;0.40;0.40;;;;;;;7.93;44.77;101208.16;5124736;28;20035;-61
2023/06/02 01:45:21;;;;;;;0.40;0.40;;;;;;;7.82;44.64;101212.28;5124741;28;20023;-62
2023/06/02 01:47:46;;;;;;;0.40;0.40;;;;;;;7.85;44.92;101217.50;5124640;28;20015;-61
2023/06/02 01:50:12;;;;;;;0.40;0.40;;;;;;;7.79;45.06;101214.81;5124528;28;20072;-61
2023/06/02 01:52:37;;;;;;;0.40;0.40;;;;;;;7.79;45.09;101223.44;5124608;28;20475;-61
2023/06/02 01:55:03;;;;;;;0.40;0.40;;;;;;;7.76;44.99;101222.53;5124676;28;20028;-60
2023/06/02 01:57:29;;;;;;;0.40;0.40;;;;;;;7.76;45.01;101219.94;5124683;28;20020;-61
2023/06/02 01:59:55;;;;;;;0.40;0.40;;;;;;;7.75;45.17;101215.59;5124687;28;20024;-61
2023/06/02 02:02:21;;;;;;;0.40;0.40;;;;;;;7.78;45.22;101229.44;5125784;28;20485;-61
2023/06/02 02:04:46;;;;;;;0.40;0.40;;;;;;;7.80;45.25;101225.19;5110209;28;20019;-61
2023/06/02 02:07:11;;;;;;;0.40;0.40;;;;;;;7.73;45.11;101212.97;5128109;28;20383;-61
2023/06/02 02:09:38;;;;;;;0.40;0.40;;;;;;;7.85;44.99;101232.13;5128423;28;20016;-60
2023/06/02 02:12:04;;;;;;;0.40;0.40;;;;;;;7.83;45.14;101228.66;5128834;28;20049;-61
2023/06/02 02:14:30;;;;;;;0.40;0.40;;;;;;;7.83;45.41;101229.53;5128560;28;20053;-61
2023/06/02 02:16:55;;;;;;;0.40;0.40;;;;;;;7.78;45.38;101224.28;5127986;28;20028;-61
2023/06/02 02:19:23;;;;;;;0.40;0.40;;;;;;;7.79;45.30;101235.50;5128338;28;20058;-61
2023/06/02 02:21:48;;;;;;;0.40;0.40;;;;;;;7.77;45.39;101247.50;5128702;28;20107;-61
2023/06/02 02:24:16;;;;;;;0.40;0.40;;;;;;;7.76;45.59;101253.53;5128506;28;20069;-61
2023/06/02 02:26:43;;;;;;;0.40;0.40;;;;;;;7.73;45.29;101253.50;5128578;28;20027;-61
2023/06/02 02:29:09;;;;;;;0.40;0.40;;;;;;;7.71;45.28;101252.59;5127850;28;20031;-61
2023/06/02 02:31:34;;;;;;;0.40;0.40;;;;;;;7.68;45.42;101256.00;5128287;28;20027;-61
2023/06/02 02:34:00;;;;;;;0.40;0.40;;;;;;;7.64;45.44;101249.00;5128350;28;20027;-60
2023/06/02 02:36:26;;;;;;;0.40;0.40;;;;;;;7.62;45.17;101246.41;5127986;28;20043;-61
2023/06/02 02:38:51;;;;;;;0.50;0.50;;;;;;;7.67;45.38;101260.28;5109636;28;20019;-61
2023/06/02 02:41:17;;;;;;;0.40;0.40;;;;;;;7.68;45.57;101256.00;5128224;28;20015;-61
2023/06/02 02:43:42;;;;;;;0.40;0.40;;;;;;;7.71;45.65;101265.50;5128150;28;20023;-61
2023/06/02 02:46:08;;;;;;;0.30;0.30;;;;;;;7.74;45.65;101266.44;5127551;28;20421;-59
2023/06/02 02:48:33;;;;;;;0.40;0.40;;;;;;;7.77;45.57;101261.31;5128114;28;20083;-61
2023/06/02 02:50:59;;;;;;;0.40;0.40;;;;;;;7.85;45.91;101263.16;5127848;28;20087;-61
2023/06/02 02:53:24;;;;;;;0.30;0.30;;;;;;;7.87;45.72;101261.47;5128084;28;20015;-60
2023/06/02 02:55:51;;;;;;;0.40;0.40;;;;;;;7.97;45.86;101270.25;5127960;28;20039;-61
2023/06/02 02:58:18;;;;;;;0.40;0.40;;;;;;;7.97;45.68;101275.44;5127849;28;20376;-62
2023/06/02 03:00:45;;;;;;;0.40;0.40;;;;;;;8.08;45.87;101278.19;5128107;28;20435;-60
2023/06/02 03:03:11;;;;;;;0.40;0.40;;;;;;;8.13;45.90;101273.97;5127462;28;20019;-61
2023/06/02 03:05:37;;;;;;;0.40;0.40;;;;;;;8.21;45.96;101277.50;5127920;28;20027;-61
2023/06/02 03:08:04;;;;;;;0.40;0.40;;;;;;;8.40;45.98;101275.22;5127636;28;20383;-60
2023/06/02 03:10:30;;;;;;;0.40;0.40;;;;;;;8.65;46.06;101275.59;5127552;28;20023;-61
2023/06/02 03:12:55;;;;;;;0.40;0.40;;;;;;;8.94;45.67;101280.28;5127512;28;20102;-61
2023/06/02 03:15:21;;;;;;;0.40;0.40;;;;;;;9.27;45.26;101283.25;5127521;28;20047;-62
2023/06/02 03:17:50;;;;;;;0.30;0.30;;;;;;;9.49;44.98;101289.53;5126962;28;20019;-63
2023/06/02 03:20:16;;;;;;;0.40;0.40;;;;;;;9.66;44.58;101291.44;5126944;28;20052;-61
2023/06/02 03:22:43;;;;;;;0.40;0.40;;;;;;;9.85;44.32;101289.88;5127340;28;20034;-61
2023/06/02 03:25:08;;;;;;;0.40;0.40;;;;;;;10.12;43.78;101288.38;5127342;28;20051;-61
2023/06/02 03:27:34;;;;;;;0.40;0.40;;;;;;;10.25;43.27;101291.94;5127496;28;20035;-61
2023/06/02 03:30:00;;;;;;;0.40;0.40;;;;;;;10.40;43.38;101285.09;5127167;28;20030;-61
2023/06/02 03:32:26;;;;;;;0.40;0.40;;;;;;;10.70;43.18;101293.97;5127070;28;20020;-61
2023/06/02 03:34:52;;;;;;;0.30;0.30;;;;;;;10.83;42.08;101294.88;5126984;28;20112;-62
2023/06/02 03:37:17;;;;;;;0.30;0.30;;;;;;;10.93;42.22;101301.00;5127230;28;20024;-61
2023/06/02 03:39:43;;;;;;;0.35;0.35;;;;;;;11.07;42.26;101311.44;5127157;28;20132;-61
2023/06/02 03:42:08;;;;;;;0.30;0.30;;;;;;;11.17;41.82;101298.50;5126956;28;20043;-62
2023/06/02 03:44:34;;;;;;;0.30;0.30;;;;;;;11.32;41.97;101301.16;5127054;28;20019;-61
2023/06/02 03:47:00;;;;;;;0.30;0.30;;;;;;;11.53;41.64;101302.91;5126697;28;20023;-60
2023/06/02 03:49:27;;;;;;;0.30;0.30;;;;;;;11.86;42.01;101312.50;5126818;28;20030;-61
2023/06/02 03:51:53;;;;;;;0.40;0.40;;;;;;;12.31;42.06;101304.72;5126665;28;20204;-61
2023/06/02 03:54:19;;;;;;;0.30;0.30;;;;;;;12.89;41.20;101313.25;5126689;28;20047;-61
2023/06/02 03:56:44;;;;;;;0.30;0.30;;;;;;;13.28;39.80;101317.44;5126760;28;20044;-62
2023/06/02 03:59:09;;;;;;;0.30;0.30;;;;;;;13.31;40.20;101314.81;5126674;28;20023;-61
2023/06/02 04:01:35;;;;;;;0.30;0.30;;;;;;;13.59;40.30;101314.72;5126361;28;20288;-62
2023/06/02 04:04:01;;;;;;;0.30;0.30;;;;;;;13.96;39.25;101328.38;5126559;28;20379;-61
2023/06/02 04:06:28;;;;;;;0.30;0.30;;;;;;;14.05;38.34;101330.03;5126203;28;20027;-61
2023/06/02 04:08:53;;;;;;;0.30;0.30;;;;;;;14.04;38.43;101329.16;5107867;28;20050;-61
2023/06/02 04:11:22;;;;;;;0.30;0.30;;;;;;;14.36;38.42;101328.00;5126499;28;20016;-62
2023/06/02 04:13:48;;;;;;;0.30;0.30;;;;;;;14.49;37.45;101327.88;5126400;28;20023;-61
2023/06/02 04:16:13;;;;;;;0.30;0.30;;;;;;;14.59;37.81;101337.38;5125993;28;20050;-60
2023/06/02 04:18:39;;;;;;;0.20;0.20;;;;;;;14.89;37.57;101337.09;5126259;28;20023;-61
2023/06/02 04:21:05;;;;;;;0.55;0.55;;;;;;;15.04;36.98;101333.44;5126400;28;20047;-62
2023/06/02 04:23:30;;;;;;;0.57;0.57;;;;;;;15.24;36.53;101345.38;5126134;28;20019;-61
2023/06/02 04:25:56;;;;;;;0.30;0.30;;;;;;;15.32;36.38;101327.00;5125617;28;20030;-62
2023/06/02 04:28:21;;;;;;;0.30;0.30;;;;;;;15.72;36.54;101342.09;5125976;28;20016;-60
2023/06/02 04:30:55;;;;;;;0.40;0.40;;;;;;;16.05;35.12;101348.63;5126279;28;20043;-63
2023/06/02 04:33:21;;;;;;;0.30;0.30;;;;;;;16.41;36.10;101350.63;5125812;28;20088;-61
2023/06/02 04:35:47;;;;;;;0.30;0.30;;;;;;;16.95;36.25;101347.00;5125896;28;20019;-62
2023/06/02 04:38:13;;;;;;;0.30;0.30;;;;;;;17.29;34.71;101355.09;5125973;28;20090;-61
2023/06/02 04:40:39;;;;;;;0.40;0.40;;;;;;;17.01;34.13;101350.41;5125696;28;20024;-61
2023/06/02 04:43:05;;;;;;;0.20;0.20;;;;;;;16.88;34.64;101355.91;5125923;28;20026;-63
2023/06/02 04:45:31;;;;;;;0.22;0.22;;;;;;;16.92;34.38;101356.69;5125513;28;20042;-65
2023/06/02 04:47:57;;;;;;;0.20;0.20;;;;;;;17.45;34.62;101355.63;5125369;28;20116;-61
2023/06/02 04:50:23;;;;;;;0.20;0.20;;;;;;;18.01;34.03;101362.22;5125674;28;20347;-62
2023/06/02 04:52:48;;;;;;;0.20;0.20;;;;;;;18.31;33.11;101359.75;5107332;28;20028;-62
2023/06/02 04:55:14;;;;;;;0.20;0.20;;;;;;;18.31;32.12;101370.28;5125351;28;20486;-61
2023/06/02 04:57:40;;;;;;;0.25;0.25;;;;;;;17.95;32.66;101372.88;5125678;28;20026;-61
2023/06/02 05:00:07;;;;;;;0.20;0.20;;;;;;;18.15;33.90;101376.81;5125249;28;20020;-61
2023/06/02 05:02:33;;;;;;;0.20;0.20;;;;;;;18.99;33.55;101368.50;5125179;28;20081;-61
2023/06/02 05:04:59;;;;;;;0.20;0.20;;;;;;;19.03;30.99;101370.13;5125524;28;20027;-57
2023/06/02 05:07:25;;;;;;;0.20;0.20;;;;;;;18.88;31.38;101369.63;5125277;28;20016;-54
2023/06/02 05:09:50;;;;;;;0.20;0.20;;;;;;;18.91;30.78;101366.91;5124990;28;20310;-58
2023/06/02 05:12:18;;;;;;;0.20;0.20;;;;;;;18.80;31.06;101367.22;5125238;28;20015;-58
2023/06/02 05:14:44;;;;;;;0.20;0.20;;;;;;;18.60;30.63;101364.28;5125008;28;20016;-59
2023/06/02 05:17:10;;;;;;;0.20;0.20;;;;;;;18.57;30.87;101363.47;5106520;28;20084;-62
2023/06/02 05:19:36;;;;;;;0.30;0.30;;;;;;;18.35;31.13;101362.31;5125006;28;20096;-60
2023/06/02 05:22:03;;;;;;;0.20;0.20;;;;;;;18.26;30.60;101369.53;5107078;28;20047;-69
2023/06/02 05:24:29;;;;;;;0.20;0.20;;;;;;;18.19;31.46;101373.22;5124996;28;20048;-58
2023/06/02 05:26:55;;;;;;;0.20;0.20;;;;;;;18.32;31.47;101363.25;5124771;28;20034;-56
2023/06/02 05:29:20;;;;;;;0.50;0.50;;;;;;;18.33;30.63;101367.59;5124510;28;20039;-55
2023/06/02 05:31:45;;;;;;;0.20;0.20;;;;;;;18.18;30.83;101360.97;5124641;28;20022;-58
2023/06/02 05:34:11;;;;;;;0.20;0.20;;;;;;;18.12;31.19;101356.72;5124707;28;20452;-58
2023/06/02 05:36:37;;;;;;;0.20;0.20;;;;;;;18.44;31.34;101369.94;5123465;28;20019;-56
2023/06/02 05:39:02;;;;;;;0.20;0.20;;;;;;;18.44;30.65;101354.19;5124719;28;20027;-57
2023/06/02 05:41:30;;;;;;;0.25;0.25;;;;;;;18.44;30.75;101368.19;5124423;28;20057;-58
2023/06/02 05:43:55;;;;;;;6.82;0.55;;;;;;;18.64;31.26;101358.06;5124928;28;20019;-58
2023/06/02 05:46:22;;;;;;;0.20;0.20;;;;;;;18.87;30.13;101370.56;5124915;28;20535;-58
2023/06/02 05:48:48;;;;;;;0.20;0.20;;;;;;;18.58;29.59;101372.22;5125112;28;20016;-57
2023/06/02 05:51:13;;;;;;;0.30;0.30;;;;;;;17.99;29.75;101369.28;5124809;28;20403;-58
2023/06/02 05:53:39;;;;;;;0.30;0.30;;;;;;;17.37;30.94;101363.66;5124916;28;20019;-57
2023/06/02 05:56:05;;;;;;;0.20;0.20;;;;;;;17.02;31.32;101363.50;5124953;28;20024;-58
2023/06/02 05:58:31;;;;;;;0.30;0.30;;;;;;;17.09;31.78;101359.88;5124669;28;20026;-57
2023/06/02 06:00:56;;;;;;;0.20;0.20;;;;;;;17.32;31.59;101369.03;5129433;22;20020;-70
2023/06/02 06:03:22;;;;;;;0.30;0.30;;;;;;;17.28;32.11;101369.13;5064312;28;20043;-74
2023/06/02 06:05:47;;;;;;;0.30;0.30;;;;;;;17.43;31.40;101362.66;5082946;28;20020;-70
2023/06/02 06:08:13;;;;;;;0.20;0.20;;;;;;;17.13;30.90;101370.28;5064858;28;20042;-69
2023/06/02 06:10:42;;;;;;;0.20;0.20;;;;;;;16.97;31.08;101375.81;5083179;28;20043;-70
2023/06/02 06:13:07;;;;;;;0.30;0.30;;;;;;;16.79;30.67;101371.81;5083364;28;20108;-69
2023/06/02 06:15:33;;;;;;;0.30;0.30;;;;;;;16.66;31.37;101368.56;5065225;28;20025;-69
2023/06/02 06:17:58;;;;;;;0.20;0.20;;;;;;;16.79;31.28;101372.66;5083122;28;20052;-70
2023/06/02 06:20:24;;;;;;;0.30;0.30;;;;;;;16.76;31.11;101361.38;5082941;28;20029;-69
2023/06/02 06:22:49;;;;;;;0.20;0.20;;;;;;;17.21;31.49;101392.00;5064975;28;20031;-70
2023/06/02 06:25:17;;;;;;;0.20;0.20;;;;;;;17.24;29.60;101388.47;5082983;28;20070;-70
2023/06/02 06:27:43;;;;;;;0.20;0.20;;;;;;;16.52;30.84;101376.69;5064688;28;20020;-71
2023/06/02 06:30:09;;;;;;;0.20;0.20;;;;;;;16.42;31.39;101387.28;5082794;28;20023;-69
2023/06/02 06:32:35;;;;;;;0.20;0.20;;;;;;;16.50;31.23;101381.06;5082592;28;20100;-67
2023/06/02 06:35:04;;;;;;;0.20;0.20;;;;;;;16.63;31.03;101379.94;5083277;28;20017;-67
2023/06/02 06:37:29;;;;;;;0.20;0.20;;;;;;;16.64;31.26;101378.19;5083632;28;20020;-67
2023/06/02 06:39:55;;;;;;;0.20;0.20;;;;;;;16.66;31.40;101379.03;5065580;28;20017;-67
2023/06/02 06:42:24;;;;;;;0.20;0.20;;;;;;;17.08;31.53;101389.63;5083789;28;20158;-68
2023/06/02 06:44:50;;;;;;;0.30;0.30;;;;;;;17.69;30.96;101390.97;5065648;28;20044;-67
2023/06/02 06:47:18;;;;;;;0.30;0.30;;;;;;;17.32;30.58;101382.16;5065403;28;20024;-67
2023/06/02 06:49:44;;;;;;;0.20;0.20;;;;;;;17.25;31.08;101388.44;5068785;28;20033;-66
2023/06/02 06:52:10;;;;;;;0.20;0.20;;;;;;;17.49;30.11;101386.19;5087432;28;20031;-67
2023/06/02 06:54:35;;;;;;;0.30;0.30;;;;;;;17.36;30.15;101389.94;5069313;28;20222;-66
2023/06/02 06:57:04;;;;;;;0.20;0.20;;;;;;;17.45;29.87;101384.50;5069130;28;20021;-68
2023/06/02 06:59:30;;;;;;;0.30;0.30;;;;;;;17.28;29.22;101388.38;5086892;28;20040;-66
2023/06/02 07:01:55;;;;;;;0.20;0.20;;;;;;;17.16;29.60;101381.59;5068132;28;20037;-67
2023/06/02 07:04:21;;;;;;;0.20;0.20;;;;;;;17.33;29.80;101390.91;5087268;28;20055;-66
2023/06/02 07:06:46;;;;;;;0.30;0.30;;;;;;;17.36;29.69;101389.94;5068927;28;20052;-67
2023/06/02 07:09:12;;;;;;;0.20;0.20;;;;;;;17.56;29.83;101400.00;5086805;28;20025;-67
2023/06/02 07:11:37;;;;;;;0.30;0.30;;;;;;;17.33;28.82;101402.22;5086964;28;20043;-66
2023/06/02 07:14:04;;;;;;;0.20;0.20;;;;;;;16.94;29.65;101396.88;5068815;28;20113;-65
2023/06/02 07:16:29;;;;;;;0.22;0.22;;;;;;;17.21;30.22;101403.38;5068689;28;20483;-66
2023/06/02 07:18:54;;;;;;;0.30;0.30;;;;;;;17.83;30.04;101395.03;5068943;28;20024;-67
2023/06/02 07:21:20;;;;;;;0.20;0.20;;;;;;;18.02;28.58;101408.59;5086689;28;20111;-68
2023/06/02 07:23:45;;;;;;;0.20;0.20;;;;;;;17.90;28.06;101404.53;5068709;28;20028;-67
2023/06/02 07:26:11;;;;;;;0.30;0.30;;;;;;;17.80;27.89;101398.59;5086657;28;20095;-67
2023/06/02 07:28:38;;;;;;;0.20;0.20;;;;;;;17.78;28.58;101405.66;5086608;28;20020;-67
2023/06/02 07:31:03;;;;;;;0.20;0.20;;;;;;;18.29;27.98;101405.41;5086377;28;20052;-66
2023/06/02 07:33:29;;;;;;;0.20;0.20;;;;;;;18.37;28.54;101407.81;5068287;28;20047;-67
2023/06/02 07:35:54;;;;;;;0.20;0.20;;;;;;;18.55;28.10;101407.34;5068566;28;20028;-67
2023/06/02 07:38:20;;;;;;;0.20;0.20;;;;;;;18.63;27.61;101420.28;5068443;28;20016;-67
2023/06/02 07:40:45;;;;;;;0.20;0.20;;;;;;;18.60;27.89;101416.88;5086201;28;20548;-66
2023/06/02 07:43:11;;;;;;;0.30;0.30;;;;;;;18.64;27.57;101421.16;5068322;28;20028;-66
2023/06/02 07:45:36;;;;;;;0.20;0.20;;;;;;;18.71;27.72;101422.72;5068253;28;20035;-67
2023/06/02 07:48:02;;;;;;;0.20;0.20;;;;;;;18.77;27.37;101430.44;5067907;28;20032;-68
2023/06/02 07:50:27;;;;;;;0.20;0.20;;;;;;;18.62;27.86;101428.22;5086260;28;20051;-67
2023/06/02 07:52:54;;;;;;;0.20;0.20;;;;;;;18.60;28.25;101419.50;5084956;28;20289;-67
2023/06/02 07:55:20;;;;;;;0.20;0.20;;;;;;;19.38;28.52;101425.31;5067986;28;20059;-66
2023/06/02 07:57:46;;;;;;;0.20;0.20;;;;;;;19.96;27.64;101429.72;5068175;28;20027;-68
2023/06/02 08:00:15;;;;;;;0.20;0.20;;;;;;;19.97;26.76;101426.16;5066949;28;20025;-67
2023/06/02 08:02:48;;;;;;;0.30;0.30;;;;;;;19.43;26.47;101431.31;5085531;28;20515;-67
2023/06/02 08:05:18;;;;;;;0.20;0.20;;;;;;;18.89;27.21;101421.38;5067920;28;20041;-67
2023/06/02 08:07:44;;;;;;;0.20;0.20;;;;;;;19.03;27.45;101430.63;5067877;28;20099;-67
2023/06/02 08:10:11;;;;;;;0.20;0.20;;;;;;;19.06;27.30;101434.06;5085726;28;20035;-67
2023/06/02 08:12:37;;;;;;;0.20;0.20;;;;;;;18.87;27.08;101417.91;5086020;28;20028;-66
2023/06/02 08:15:04;;;;;;;0.65;0.65;;;;;;;18.66;27.13;101432.50;5068200;28;20021;-67
2023/06/02 08:17:29;;;;;;;0.20;0.20;;;;;;;18.57;27.33;101431.84;5085662;28;20277;-67
2023/06/02 08:19:57;;;;;;;0.20;0.20;;;;;;;18.67;27.31;101421.97;5085733;28;20027;-67
2023/06/02 08:22:25;;;;;;;0.20;0.20;;;;;;;19.31;27.57;101422.84;5084201;28;20024;-67
2023/06/02 08:24:52;;;;;;;0.20;0.20;;;;;;;19.98;26.96;101427.91;5067447;28;20024;-67
2023/06/02 08:27:19;;;;;;;0.20;0.20;;;;;;;19.98;25.67;101419.13;5085677;28;20035;-66
2023/06/02 08:29:45;;;;;;;0.20;0.20;;;;;;;20.23;26.27;101411.31;5085350;28;20035;-66
2023/06/02 08:32:11;;;;;;;0.20;0.20;;;;;;;20.73;25.40;101417.56;5085404;28;20031;-66
2023/06/02 08:34:37;;;;;;;5.78;2.50;;;;;;;20.81;24.98;101401.44;5085459;28;20060;-66
2023/06/02 08:37:03;;;;;;;0.20;0.20;;;;;;;21.17;25.43;101408.97;5085314;28;20024;-67
2023/06/02 08:39:29;;;;;;;0.20;0.20;;;;;;;21.78;24.01;101414.63;5085376;28;20080;-66
2023/06/02 08:42:01;;;;;;;11.23;0.98;;;;;;;21.49;24.09;101403.38;5067174;28;20107;-66
2023/06/02 08:44:29;;;;;;;0.20;0.20;;;;;;;21.15;24.11;101426.63;5085335;28;20098;-67
2023/06/02 08:46:55;;;;;;;0.20;0.20;;;;;;;20.86;24.34;101409.19;5085013;28;20099;-68
2023/06/02 08:49:22;;;;;;;0.20;0.20;;;;;;;21.03;24.95;101417.41;5085115;28;20020;-67
2023/06/02 08:51:53;;;;;;;0.20;0.20;;;;;;;21.25;22.55;101419.22;5083771;28;20055;-67
2023/06/02 08:54:20;;;;;;;0.20;0.20;;;;;;;21.27;22.91;101412.13;5085058;28;20027;-65
2023/06/02 08:56:49;;;;;;;0.20;0.20;;;;;;;21.46;23.23;101408.78;5067009;28;20024;-67
2023/06/02 08:59:19;;;;;;;0.20;0.20;;;;;;;22.11;22.78;101415.09;5066865;28;20021;-67
2023/06/02 09:01:45;;;;;;;0.20;0.20;;;;;;;22.03;21.53;101423.31;5066343;28;20513;-66
2023/06/02 09:04:11;;;;;;;0.20;0.20;;;;;;;21.61;21.60;101422.31;5083599;28;20033;-67
2023/06/02 09:06:36;;;;;;;0.20;0.20;;;;;;;21.69;21.49;101419.38;5066732;28;20024;-67
2023/06/02 09:09:03;;;;;;;0.20;0.20;;;;;;;21.47;20.68;101420.22;5084523;28;20110;-69
2023/06/02 09:11:30;;;;;;;0.20;0.20;;;;;;;20.86;21.13;101431.19;5066329;28;20025;-66
2023/06/02 09:13:56;;;;;;;0.20;0.20;;;;;;;20.53;21.78;101408.53;5084583;28;20020;-68
2023/06/02 09:16:23;;;;;;;0.20;0.20;;;;;;;20.42;21.63;101431.78;5084514;28;20487;-67
2023/06/02 09:18:59;;;;;;;0.20;0.20;;;;;;;20.33;21.93;101440.00;5083002;28;20020;-70
2023/06/02 09:21:32;;;;;;;0.20;0.20;;;;;;;20.56;22.19;101433.94;5084320;28;20028;-66
2023/06/02 09:23:58;;;;;;;0.17;0.17;;;;;;;20.81;22.07;101433.13;5066583;28;20107;-67
2023/06/02 09:26:30;;;;;;;0.20;0.20;;;;;;;20.90;22.00;101437.19;5084504;28;20031;-68
2023/06/02 09:29:08;;;;;;;0.20;0.20;;;;;;;21.42;22.47;101423.88;5084457;28;20012;-68
2023/06/02 09:31:52;;;;;;;0.20;0.20;;;;;;;21.88;22.68;101432.75;5066298;28;20040;-68
2023/06/02 09:34:22;;;;;;;0.20;0.20;;;;;;;22.14;21.63;101425.56;5066490;28;20095;-67
2023/06/02 09:36:52;;;;;;;0.20;0.20;;;;;;;21.78;20.89;101417.25;5066292;28;20032;-67
2023/06/02 09:39:33;;;;;;;0.20;0.20;;;;;;;21.22;21.60;101432.56;5066152;28;20111;-67
2023/06/02 09:42:00;;;;;;;0.20;0.20;;;;;;;21.17;21.66;101431.84;5066112;28;20054;-67
2023/06/02 09:44:26;;;;;;;0.20;0.20;;;;;;;21.14;20.65;101435.47;5084112;28;20028;-67
2023/06/02 09:46:52;;;;;;;0.20;0.20;;;;;;;20.69;21.43;101423.84;5083919;28;20102;-67
2023/06/02 09:49:18;;;;;;;0.20;0.20;;;;;;;20.95;20.90;101421.22;5084079;28;20021;-67
2023/06/02 09:51:43;;;;;;;0.20;0.20;;;;;;;20.72;20.93;101422.88;5083859;28;20027;-68
2023/06/02 09:54:09;;;;;;;0.20;0.20;;;;;;;20.38;21.01;101438.97;5083991;28;20369;-70
2023/06/02 09:56:38;;;;;;;0.20;0.20;;;;;;;20.28;21.27;101437.53;5083637;28;20097;-68
2023/06/02 09:59:07;;;;;;;0.40;0.40;;;;;;;20.38;21.31;101441.59;5084100;28;20031;-67
2023/06/02 10:01:34;;;;;;;0.20;0.20;;;;;;;20.38;21.38;101438.09;5083096;28;20044;-67
2023/06/02 10:04:01;;;;;;;0.20;0.20;;;;;;;20.62;20.81;101441.69;5083756;28;20067;-67
2023/06/02 10:06:41;;;;;;;0.20;0.20;;;;;;;20.16;20.77;101437.00;5084003;28;20048;-67
2023/06/02 10:09:32;;;;;;;0.20;0.20;;;;;;;20.04;21.15;101446.19;5083635;28;20376;-67
2023/06/02 10:12:16;;;;;;;0.20;0.20;;;;;;;20.26;21.50;101436.69;5083417;28;20139;-68
2023/06/02 10:15:41;;;;;;;0.20;0.20;;;;;;;20.97;20.99;101425.53;5084261;28;20024;-70
2023/06/02 10:18:43;;;;;;;0.20;0.20;;;;;;;20.91;20.40;101437.16;4982190;28;20035;-68
2023/06/02 10:21:33;;;;;;;0.20;0.20;;;;;;;20.71;20.55;101455.44;4982352;28;20076;-68
2023/06/02 10:24:20;;;;;;;0.20;0.20;;;;;;;20.38;20.88;101449.50;4984357;28;20094;-72
2023/06/02 10:27:03;;;;;;;0.20;0.20;;;;;;;20.39;21.16;101442.44;4985264;28;20039;-74
2023/06/02 10:29:30;;;;;;;1.15;1.15;;;;;;;20.90;21.41;101447.75;4985594;28;20030;-73
2023/06/02 10:31:56;;;;;;;0.20;0.20;;;;;;;21.25;20.80;101429.78;4985312;28;20038;-75
2023/06/02 10:34:36;;;;;;;0.20;0.20;;;;;;;21.36;20.75;101428.56;4986024;28;20023;-70
2023/06/02 10:37:04;;;;;;;0.20;0.20;;;;;;;21.51;21.00;101430.59;4986000;28;20645;-75
2023/06/02 10:39:53;;;;;;;0.55;0.55;;;;;;;21.27;20.27;101419.19;4985927;28;20034;-70
2023/06/02 10:42:24;;;;;;;0.20;0.20;;;;;;;20.93;20.37;101411.59;4985840;28;20023;-70
2023/06/02 10:44:52;;;;;;;0.20;0.20;;;;;;;20.51;20.38;101420.06;4985650;28;20396;-69
2023/06/02 10:47:17;;;;;;;0.20;0.20;;;;;;;20.29;20.57;101416.38;4985432;28;20539;-68
2023/06/02 10:50:03;;;;;;;0.20;0.20;;;;;;;19.98;20.84;101425.28;4985811;28;20115;-70
2023/06/02 10:52:34;;;;;;;0.20;0.20;;;;;;;19.76;21.16;101428.56;5054058;28;20037;-70
2023/06/02 10:55:12;;;;;;;0.95;0.95;;;;;;;20.00;21.42;101422.59;5086932;28;20020;-69
2023/06/02 10:58:03;;;;;;;0.20;0.20;;;;;;;19.65;21.33;101428.03;5087174;28;20036;-70
2023/06/02 11:00:40;;;;;;;0.20;0.20;;;;;;;18.87;21.55;101435.44;5087218;28;20139;-69
2023/06/02 11:03:08;;;;;;;0.20;0.20;;;;;;;18.05;22.50;101429.56;5068926;28;20090;-70
2023/06/02 11:05:34;;;;;;;0.20;0.20;;;;;;;17.48;23.14;101426.44;5087081;28;20032;-70
2023/06/02 11:08:15;;;;;;;1.95;0.75;;;;;;;16.98;23.50;101416.91;5087092;28;20070;-68
2023/06/02 11:10:43;;;;;;;0.30;0.30;;;;;;;16.62;24.25;101425.41;5068781;28;20096;-70
2023/06/02 11:13:09;;;;;;;0.20;0.20;;;;;;;16.53;24.58;101430.81;5086659;28;20027;-69
2023/06/02 11:15:35;;;;;;;0.20;0.20;;;;;;;16.28;24.83;101434.69;5085385;28;20032;-69
2023/06/02 11:18:03;;;;;;;0.20;0.20;;;;;;;16.04;25.12;101423.72;5086682;28;20028;-70
2023/06/02 11:20:35;;;;;;;0.30;0.30;;;;;;;15.99;25.46;101428.16;5068712;28;20028;-72
2023/06/02 11:23:05;;;;;;;0.20;0.20;;;;;;;16.13;25.58;101419.22;5086605;28;20039;-70
2023/06/02 11:25:30;;;;;;;0.20;0.20;;;;;;;16.30;25.35;101425.06;5086645;28;20016;-71
2023/06/02 11:27:56;;;;;;;0.30;0.30;;;;;;;16.21;25.39;101428.69;5068180;28;20036;-69
2023/06/02 11:30:21;;;;;;;0.30;0.30;;;;;;;16.03;25.52;101419.38;5068047;28;20037;-70